Airfield :







YOU CAN JOIN US ON...

 
LOGIN :

Register | Disclaimer

   EN    FR    IT 

 









Legend :    VFR   Marginal VFR   IFR   Intensive IFR   Very Intensive IFR
Visi :
Ceiling :
>= 8 km
>= 3000ft
5 to 8 km
1000 to 3000 ft
1500m to 5 km
500 to 1000 ft
800 to 1500m
200 to 500 ft
< 800m
< 200 ft
Symbols :   Thunderstorms  Fog  Heavy snow  Heavy precipitations  Wind > 20 kt






- Airport Elevation : 489 ft


KHUL - Houlton International

CURRENT METAR :
  • 280153Z AUTO 20003KT 10SM -RA FEW090 SCT110 21/19 A3011 RMK AO2 LTG DSNT W RAB04 SLP194 P0001 T02060189

EXPIRED METARs :
  • 280053Z AUTO 20004KT 10SM CLR 21/18 A3009 RMK AO2 LTG DSNT W RAE09 SLP188 P0000 T02110183
  • 280010Z AUTO 17005KT 10SM FEW047 SCT100 SCT120 21/18 A3008 RMK AO2 LTG DSNT E AND SE AND W RAE09 P0000 T02110183
  • 272353Z AUTO 16005KT 10SM VCTS -RA FEW100 SCT120 21/18 A3009 RMK AO2 LTG DSNT SE TSE48 SLP190 P0024 60044 T02060183 10328 20200 50020
  • 272341Z AUTO 18006KT 10SM -TSRA FEW031 FEW100 21/18 A3010 RMK AO2 LTG DSNT NE AND E AND SW P0023 T02060183
  • 272330Z AUTO 18005KT 1 3/4SM -TSRA BR FEW037 SCT055 BKN075 20/18 A3011 RMK AO2 LTG DSNT ALQDS P0022 T02000183
  • 272315Z AUTO VRB04KT 1 1/4SM +TSRA BR SCT031 BKN055 OVC090 20/18 A3014 RMK AO2 LTG DSNT ALQDS P0020 T02000183

TAF KHUL
Valid from the 28 at 00:00 until the 29 at 00:00 UTC


272320Z 2800/2824 35009KT P6SM VCTS SCT030CB BKN050
TEMPO 2800/2801 -TSRA
FM280100 17004KT P6SM SCT200
FM281500 20005KT P6SM SCT050
KZBW FIR / North America



MET'MAP, your aeronautical weather chart ! - Copyright ORBIFLY December 2007 - Disclaimer

ORBIFLY MET'MAP TEAM :

Programming & Development : Alexandra Zaïnal
Concept & original design : Baudouin d'Aumeries
Assistance for programming : Marc-Olivier Méhu
Technical & hardware support : Manuel Goepfert

Contact : metmap@orbifly.com




SOURCES & CREDITS :

   NOAA